sensor_id;sensor_type;location;lat;lon;timestamp;pressure;altitude;pressure_sealevel;temperature;humidity
6132;BME280;3097;42.692;23.278;2022-12-20T00:00:46;96836.69;;;0.96;82.29
6132;BME280;3097;42.692;23.278;2022-12-20T00:03:12;96845.94;;;1.08;81.63
6132;BME280;3097;42.692;23.278;2022-12-20T00:05:41;96836.47;;;1.10;81.27
6132;BME280;3097;42.692;23.278;2022-12-20T00:08:08;96845.94;;;1.08;81.46
6132;BME280;3097;42.692;23.278;2022-12-20T00:10:42;96845.72;;;1.11;81.39
6132;BME280;3097;42.692;23.278;2022-12-20T00:13:09;96850.31;;;1.06;81.12
6132;BME280;3097;42.692;23.278;2022-12-20T00:15:35;96841.63;;;0.98;81.43
6132;BME280;3097;42.692;23.278;2022-12-20T00:18:00;96848.91;;;0.91;81.27
6132;BME280;3097;42.692;23.278;2022-12-20T00:20:27;96850.66;;;1.02;81.60
6132;BME280;3097;42.692;23.278;2022-12-20T00:22:53;96856.53;;;1.02;80.86
6132;BME280;3097;42.692;23.278;2022-12-20T00:25:19;96852.41;;;1.12;80.86
6132;BME280;3097;42.692;23.278;2022-12-20T00:27:46;96856.31;;;1.05;80.45
6132;BME280;3097;42.692;23.278;2022-12-20T00:30:11;96846.28;;;1.04;80.13
6132;BME280;3097;42.692;23.278;2022-12-20T00:32:37;96847.56;;;1.09;79.81
6132;BME280;3097;42.692;23.278;2022-12-20T00:35:03;96836.44;;;0.99;79.83
6132;BME280;3097;42.692;23.278;2022-12-20T00:37:28;96848.94;;;1.02;79.68
6132;BME280;3097;42.692;23.278;2022-12-20T00:39:54;96850.53;;;0.92;80.00
6132;BME280;3097;42.692;23.278;2022-12-20T00:42:19;96845.56;;;1.02;79.62
6132;BME280;3097;42.692;23.278;2022-12-20T00:44:44;96842.38;;;1.11;79.55
6132;BME280;3097;42.692;23.278;2022-12-20T00:47:10;96851.22;;;1.05;79.23
6132;BME280;3097;42.692;23.278;2022-12-20T00:49:35;96847.97;;;0.92;79.38
6132;BME280;3097;42.692;23.278;2022-12-20T00:52:01;96847.16;;;0.92;80.02
6132;BME280;3097;42.692;23.278;2022-12-20T00:54:26;96844.66;;;1.03;79.70
6132;BME280;3097;42.692;23.278;2022-12-20T00:56:52;96840.41;;;1.03;78.73
6132;BME280;3097;42.692;23.278;2022-12-20T00:59:17;96845.78;;;0.99;79.21
6132;BME280;3097;42.692;23.278;2022-12-20T01:01:42;96847.66;;;0.97;79.40
6132;BME280;3097;42.692;23.278;2022-12-20T01:04:08;96843.81;;;0.80;79.08
6132;BME280;3097;42.692;23.278;2022-12-20T01:06:33;96850.75;;;0.89;78.90
6132;BME280;3097;42.692;23.278;2022-12-20T01:08:59;96848.69;;;0.94;79.29
6132;BME280;3097;42.692;23.278;2022-12-20T01:11:27;96843.50;;;0.96;78.99
6132;BME280;3097;42.692;23.278;2022-12-20T01:13:55;96842.91;;;0.92;78.93
6132;BME280;3097;42.692;23.278;2022-12-20T01:16:50;96837.63;;;0.95;78.09
6132;BME280;3097;42.692;23.278;2022-12-20T01:19:17;96821.84;;;0.68;78.61
6132;BME280;3097;42.692;23.278;2022-12-20T01:21:43;96832.00;;;0.68;78.48
6132;BME280;3097;42.692;23.278;2022-12-20T01:24:18;96836.50;;;0.64;79.45
6132;BME280;3097;42.692;23.278;2022-12-20T01:26:45;96830.97;;;0.70;79.33
6132;BME280;3097;42.692;23.278;2022-12-20T01:29:10;96830.06;;;0.71;79.04
6132;BME280;3097;42.692;23.278;2022-12-20T01:31:36;96821.06;;;0.67;79.04
6132;BME280;3097;42.692;23.278;2022-12-20T01:34:01;96812.81;;;0.53;79.26
6132;BME280;3097;42.692;23.278;2022-12-20T01:36:33;96816.31;;;0.63;79.38
6132;BME280;3097;42.692;23.278;2022-12-20T01:39:04;96812.59;;;0.56;78.79
6132;BME280;3097;42.692;23.278;2022-12-20T01:41:31;96811.00;;;0.55;79.03
6132;BME280;3097;42.692;23.278;2022-12-20T01:44:00;96809.34;;;0.43;79.61
6132;BME280;3097;42.692;23.278;2022-12-20T01:46:28;96808.06;;;0.37;79.67
6132;BME280;3097;42.692;23.278;2022-12-20T01:51:22;96805.13;;;0.19;80.38
6132;BME280;3097;42.692;23.278;2022-12-20T01:53:51;96802.13;;;0.14;80.38
6132;BME280;3097;42.692;23.278;2022-12-20T01:56:18;96795.16;;;0.05;80.69
6132;BME280;3097;42.692;23.278;2022-12-20T01:58:45;96798.97;;;0.11;80.90
6132;BME280;3097;42.692;23.278;2022-12-20T02:01:13;96798.22;;;0.21;80.00
6132;BME280;3097;42.692;23.278;2022-12-20T02:03:39;96798.63;;;0.15;80.44
6132;BME280;3097;42.692;23.278;2022-12-20T02:06:20;96801.22;;;0.26;79.93
6132;BME280;3097;42.692;23.278;2022-12-20T02:08:47;96797.97;;;0.24;79.46
6132;BME280;3097;42.692;23.278;2022-12-20T02:16:24;96793.63;;;0.26;79.65
6132;BME280;3097;42.692;23.278;2022-12-20T02:18:59;96803.06;;;0.24;79.66
6132;BME280;3097;42.692;23.278;2022-12-20T02:29:53;96791.69;;;0.30;79.66
6132;BME280;3097;42.692;23.278;2022-12-20T02:32:23;96796.41;;;0.34;79.18
6132;BME280;3097;42.692;23.278;2022-12-20T02:34:50;96792.84;;;0.37;79.10
6132;BME280;3097;42.692;23.278;2022-12-20T02:37:16;96800.47;;;0.37;78.35
6132;BME280;3097;42.692;23.278;2022-12-20T02:39:43;96805.28;;;0.29;78.29
6132;BME280;3097;42.692;23.278;2022-12-20T02:42:12;96785.59;;;0.09;79.60
6132;BME280;3097;42.692;23.278;2022-12-20T02:44:56;96793.44;;;0.06;79.05
6132;BME280;3097;42.692;23.278;2022-12-20T02:47:48;96788.38;;;0.06;79.62
6132;BME280;3097;42.692;23.278;2022-12-20T02:50:20;96782.28;;;0.19;78.89
6132;BME280;3097;42.692;23.278;2022-12-20T02:52:48;96746.47;;;-0.11;79.11
6132;BME280;3097;42.692;23.278;2022-12-20T02:55:15;96784.13;;;0.17;79.06
6132;BME280;3097;42.692;23.278;2022-12-20T02:57:58;96783.00;;;0.21;78.38
6132;BME280;3097;42.692;23.278;2022-12-20T03:00:30;96790.72;;;0.20;78.83
6132;BME280;3097;42.692;23.278;2022-12-20T03:02:58;96782.31;;;0.30;78.65
6132;BME280;3097;42.692;23.278;2022-12-20T03:05:45;96780.56;;;0.20;78.58
6132;BME280;3097;42.692;23.278;2022-12-20T03:08:11;96775.59;;;0.18;78.87
6132;BME280;3097;42.692;23.278;2022-12-20T03:10:37;96769.97;;;0.26;78.64
6132;BME280;3097;42.692;23.278;2022-12-20T03:13:03;96770.38;;;0.09;79.23
6132;BME280;3097;42.692;23.278;2022-12-20T03:15:28;96773.72;;;0.09;79.72
6132;BME280;3097;42.692;23.278;2022-12-20T03:17:54;96756.88;;;-0.03;80.18
6132;BME280;3097;42.692;23.278;2022-12-20T03:20:19;96766.66;;;0.02;80.17
6132;BME280;3097;42.692;23.278;2022-12-20T03:22:45;96757.78;;;-0.04;80.44
6132;BME280;3097;42.692;23.278;2022-12-20T03:25:10;96748.91;;;-0.10;80.28
6132;BME280;3097;42.692;23.278;2022-12-20T03:27:36;96760.28;;;-0.15;80.55
6132;BME280;3097;42.692;23.278;2022-12-20T03:30:02;96762.16;;;-0.06;80.90
6132;BME280;3097;42.692;23.278;2022-12-20T03:32:28;96764.19;;;-0.11;81.72
6132;BME280;3097;42.692;23.278;2022-12-20T03:34:54;96768.38;;;-0.10;80.86
6132;BME280;3097;42.692;23.278;2022-12-20T03:37:19;96751.75;;;-0.14;80.59
6132;BME280;3097;42.692;23.278;2022-12-20T03:39:44;96767.47;;;0.02;80.98
6132;BME280;3097;42.692;23.278;2022-12-20T03:42:10;96756.69;;;0.11;80.60
6132;BME280;3097;42.692;23.278;2022-12-20T03:44:35;96764.09;;;0.14;79.56
6132;BME280;3097;42.692;23.278;2022-12-20T03:47:01;96746.03;;;-0.05;79.95
6132;BME280;3097;42.692;23.278;2022-12-20T03:49:26;96757.78;;;-0.04;80.19
6132;BME280;3097;42.692;23.278;2022-12-20T03:51:52;96747.72;;;-0.17;80.35
6132;BME280;3097;42.692;23.278;2022-12-20T03:54:17;96758.16;;;-0.21;80.34
6132;BME280;3097;42.692;23.278;2022-12-20T03:56:43;96729.06;;;-0.40;80.81
6132;BME280;3097;42.692;23.278;2022-12-20T03:59:08;96755.06;;;-0.25;81.23
6132;BME280;3097;42.692;23.278;2022-12-20T04:01:33;96754.88;;;-0.11;81.10
6132;BME280;3097;42.692;23.278;2022-12-20T04:04:01;96761.03;;;-0.02;80.08
6132;BME280;3097;42.692;23.278;2022-12-20T04:06:27;96767.13;;;-0.05;79.99
6132;BME280;3097;42.692;23.278;2022-12-20T04:08:52;96764.81;;;-0.08;80.27
6132;BME280;3097;42.692;23.278;2022-12-20T04:11:18;96760.78;;;0.01;80.15
6132;BME280;3097;42.692;23.278;2022-12-20T04:13:49;96740.25;;;-0.07;79.16
6132;BME280;3097;42.692;23.278;2022-12-20T04:16:17;96757.44;;;0.00;79.55
6132;BME280;3097;42.692;23.278;2022-12-20T04:18:43;96753.69;;;0.06;79.48
6132;BME280;3097;42.692;23.278;2022-12-20T04:21:09;96761.47;;;-0.08;79.21
6132;BME280;3097;42.692;23.278;2022-12-20T04:23:37;96754.88;;;-0.11;79.88
6132;BME280;3097;42.692;23.278;2022-12-20T04:26:04;96721.59;;;-0.30;79.64
6132;BME280;3097;42.692;23.278;2022-12-20T04:28:30;96757.78;;;-0.04;79.50
6132;BME280;3097;42.692;23.278;2022-12-20T04:30:56;96758.75;;;0.06;79.08
6132;BME280;3097;42.692;23.278;2022-12-20T04:33:23;96720.69;;;-0.05;79.13
6132;BME280;3097;42.692;23.278;2022-12-20T04:35:49;96748.16;;;0.12;79.13
6132;BME280;3097;42.692;23.278;2022-12-20T04:38:14;96745.28;;;0.17;79.02
6132;BME280;3097;42.692;23.278;2022-12-20T04:40:40;96749.47;;;0.29;78.60
6132;BME280;3097;42.692;23.278;2022-12-20T04:43:06;96744.97;;;0.32;78.39
6132;BME280;3097;42.692;23.278;2022-12-20T04:45:32;96740.47;;;0.25;77.76
6132;BME280;3097;42.692;23.278;2022-12-20T04:47:58;96735.38;;;0.14;78.35
6132;BME280;3097;42.692;23.278;2022-12-20T04:50:23;96733.41;;;0.06;78.59
6132;BME280;3097;42.692;23.278;2022-12-20T04:52:48;96745.38;;;0.15;78.25
6132;BME280;3097;42.692;23.278;2022-12-20T04:55:39;96745.38;;;0.15;78.17
6132;BME280;3097;42.692;23.278;2022-12-20T04:58:06;96748.59;;;0.06;78.52
6132;BME280;3097;42.692;23.278;2022-12-20T05:00:31;96727.38;;;-0.04;78.73
6132;BME280;3097;42.692;23.278;2022-12-20T05:02:57;96740.94;;;-0.05;78.44
6132;BME280;3097;42.692;23.278;2022-12-20T05:05:22;96742.16;;;-0.22;78.90
6132;BME280;3097;42.692;23.278;2022-12-20T05:07:49;96735.22;;;-0.31;79.19
6132;BME280;3097;42.692;23.278;2022-12-20T05:10:14;96731.00;;;-0.43;79.66
6132;BME280;3097;42.692;23.278;2022-12-20T05:12:40;96742.38;;;-0.49;80.00
6132;BME280;3097;42.692;23.278;2022-12-20T05:15:06;96742.19;;;-0.58;80.48
6132;BME280;3097;42.692;23.278;2022-12-20T05:17:32;96746.06;;;-0.65;80.94
6132;BME280;3097;42.692;23.278;2022-12-20T05:19:58;96735.75;;;-0.62;81.40
6132;BME280;3097;42.692;23.278;2022-12-20T05:22:23;96739.94;;;-0.50;80.60
6132;BME280;3097;42.692;23.278;2022-12-20T05:25:09;96732.69;;;-0.55;81.05
6132;BME280;3097;42.692;23.278;2022-12-20T05:27:53;96747.28;;;-0.34;80.21
6132;BME280;3097;42.692;23.278;2022-12-20T05:30:18;96727.13;;;-0.36;80.18
6132;BME280;3097;42.692;23.278;2022-12-20T05:32:44;96733.59;;;-0.32;79.80
6132;BME280;3097;42.692;23.278;2022-12-20T05:35:09;96751.75;;;-0.14;79.61
6132;BME280;3097;42.692;23.278;2022-12-20T05:37:35;96744.63;;;-0.09;79.30
6132;BME280;3097;42.692;23.278;2022-12-20T05:40:00;96742.00;;;-0.08;79.06
6132;BME280;3097;42.692;23.278;2022-12-20T05:42:26;96743.59;;;-0.07;78.88
6132;BME280;3097;42.692;23.278;2022-12-20T05:44:51;96754.06;;;-0.11;79.12
6132;BME280;3097;42.692;23.278;2022-12-20T05:47:17;96751.34;;;0.03;78.84
6132;BME280;3097;42.692;23.278;2022-12-20T05:49:42;96752.25;;;0.02;78.73
6132;BME280;3097;42.692;23.278;2022-12-20T05:52:07;96752.63;;;0.09;78.72
6132;BME280;3097;42.692;23.278;2022-12-20T05:54:33;96753.59;;;0.19;78.40
6132;BME280;3097;42.692;23.278;2022-12-20T05:56:58;96759.28;;;0.22;78.05
6132;BME280;3097;42.692;23.278;2022-12-20T05:59:24;96746.81;;;0.30;78.14
6132;BME280;3097;42.692;23.278;2022-12-20T06:01:49;96750.72;;;0.23;78.27
6132;BME280;3097;42.692;23.278;2022-12-20T06:04:15;96746.19;;;0.16;77.73
6132;BME280;3097;42.692;23.278;2022-12-20T06:06:40;96756.53;;;0.02;78.13
6132;BME280;3097;42.692;23.278;2022-12-20T06:09:05;96755.50;;;0.04;78.44
6132;BME280;3097;42.692;23.278;2022-12-20T06:11:31;96757.78;;;-0.04;78.82
6132;BME280;3097;42.692;23.278;2022-12-20T06:13:56;96753.88;;;0.03;78.96
6132;BME280;3097;42.692;23.278;2022-12-20T06:16:22;96758.31;;;0.12;78.72
6132;BME280;3097;42.692;23.278;2022-12-20T06:18:48;96757.84;;;0.18;78.55
6132;BME280;3097;42.692;23.278;2022-12-20T06:21:14;96759.84;;;0.26;78.67
6132;BME280;3097;42.692;23.278;2022-12-20T06:23:39;96754.66;;;0.27;78.54
6132;BME280;3097;42.692;23.278;2022-12-20T06:26:05;96764.00;;;0.38;78.15
6132;BME280;3097;42.692;23.278;2022-12-20T06:28:34;96766.94;;;0.45;78.15
6132;BME280;3097;42.692;23.278;2022-12-20T06:30:59;96763.34;;;0.47;77.58
6132;BME280;3097;42.692;23.278;2022-12-20T06:33:24;96754.00;;;0.48;77.75
6132;BME280;3097;42.692;23.278;2022-12-20T06:35:50;96724.22;;;0.38;77.37
6132;BME280;3097;42.692;23.278;2022-12-20T06:38:16;96743.19;;;0.57;77.24
6132;BME280;3097;42.692;23.278;2022-12-20T06:40:42;96757.28;;;0.72;76.95
6132;BME280;3097;42.692;23.278;2022-12-20T06:43:08;96747.94;;;0.72;76.38
6132;BME280;3097;42.692;23.278;2022-12-20T06:45:33;96749.19;;;0.67;76.24
6132;BME280;3097;42.692;23.278;2022-12-20T06:47:58;96721.47;;;0.53;76.75
6132;BME280;3097;42.692;23.278;2022-12-20T06:50:24;96713.53;;;0.57;76.94
6132;BME280;3097;42.692;23.278;2022-12-20T06:52:50;96720.09;;;0.49;76.15
6132;BME280;3097;42.692;23.278;2022-12-20T06:55:15;96729.59;;;0.58;76.52
6132;BME280;3097;42.692;23.278;2022-12-20T06:57:41;96737.91;;;0.60;76.15
6132;BME280;3097;42.692;23.278;2022-12-20T07:00:07;96744.38;;;0.75;76.18
6132;BME280;3097;42.692;23.278;2022-12-20T07:02:34;96703.97;;;0.50;75.75
6132;BME280;3097;42.692;23.278;2022-12-20T07:05:00;96717.69;;;0.58;76.35
6132;BME280;3097;42.692;23.278;2022-12-20T07:07:25;96728.75;;;0.68;76.14
6132;BME280;3097;42.692;23.278;2022-12-20T07:09:51;96725.41;;;0.68;76.24
6132;BME280;3097;42.692;23.278;2022-12-20T07:12:16;96725.41;;;0.68;76.06
6132;BME280;3097;42.692;23.278;2022-12-20T07:14:42;96721.75;;;0.72;75.80
6132;BME280;3097;42.692;23.278;2022-12-20T07:17:08;96720.13;;;0.82;75.75
6132;BME280;3097;42.692;23.278;2022-12-20T07:19:34;96721.72;;;0.83;75.31
6132;BME280;3097;42.692;23.278;2022-12-20T07:22:01;96728.44;;;0.95;75.24
6132;BME280;3097;42.692;23.278;2022-12-20T07:24:27;96727.75;;;0.82;74.86
6132;BME280;3097;42.692;23.278;2022-12-20T07:26:52;96726.38;;;0.67;74.62
6132;BME280;3097;42.692;23.278;2022-12-20T07:29:18;96722.22;;;0.66;74.61
6132;BME280;3097;42.692;23.278;2022-12-20T07:31:43;96721.53;;;0.75;74.82
6132;BME280;3097;42.692;23.278;2022-12-20T07:34:09;96728.34;;;0.74;74.86
6132;BME280;3097;42.692;23.278;2022-12-20T07:36:34;96728.53;;;0.71;74.43
6132;BME280;3097;42.692;23.278;2022-12-20T07:39:00;96722.78;;;0.69;74.07
6132;BME280;3097;42.692;23.278;2022-12-20T07:41:25;96724.25;;;0.61;74.77
6132;BME280;3097;42.692;23.278;2022-12-20T07:43:51;96731.66;;;0.64;75.47
6132;BME280;3097;42.692;23.278;2022-12-20T07:46:17;96707.31;;;0.61;74.33
6132;BME280;3097;42.692;23.278;2022-12-20T07:48:43;96723.94;;;0.88;74.12
6132;BME280;3097;42.692;23.278;2022-12-20T07:51:12;96719.31;;;0.93;73.83
6132;BME280;3097;42.692;23.278;2022-12-20T07:53:43;96713.75;;;1.10;73.74
6132;BME280;3097;42.692;23.278;2022-12-20T07:56:11;96694.25;;;1.10;73.31
6132;BME280;3097;42.692;23.278;2022-12-20T07:58:39;96709.94;;;1.27;72.81
6132;BME280;3097;42.692;23.278;2022-12-20T08:01:06;96709.19;;;1.36;72.79
6132;BME280;3097;42.692;23.278;2022-12-20T08:03:39;96712.31;;;1.39;72.74
6132;BME280;3097;42.692;23.278;2022-12-20T08:06:07;96712.09;;;1.42;76.74
6132;BME280;3097;42.692;23.278;2022-12-20T08:08:34;96710.63;;;1.61;73.84
6132;BME280;3097;42.692;23.278;2022-12-20T08:11:03;96704.47;;;1.74;71.54
6132;BME280;3097;42.692;23.278;2022-12-20T08:13:30;96703.31;;;1.78;70.85
6132;BME280;3097;42.692;23.278;2022-12-20T08:15:57;96704.03;;;1.69;71.05
6132;BME280;3097;42.692;23.278;2022-12-20T08:18:22;96708.19;;;1.70;69.19
6132;BME280;3097;42.692;23.278;2022-12-20T08:20:48;96710.09;;;1.57;69.21
6132;BME280;3097;42.692;23.278;2022-12-20T08:23:13;96674.50;;;1.14;69.23
6132;BME280;3097;42.692;23.278;2022-12-20T08:25:39;96698.84;;;1.28;70.34
6132;BME280;3097;42.692;23.278;2022-12-20T08:28:05;96702.09;;;1.19;69.34
6132;BME280;3097;42.692;23.278;2022-12-20T08:30:30;96679.94;;;1.09;70.23
6132;BME280;3097;42.692;23.278;2022-12-20T08:32:56;96698.28;;;1.24;69.59
6132;BME280;3097;42.692;23.278;2022-12-20T08:35:21;96686.38;;;1.13;70.24
6132;BME280;3097;42.692;23.278;2022-12-20T08:37:47;96686.16;;;1.16;70.61
6132;BME280;3097;42.692;23.278;2022-12-20T08:40:15;96675.34;;;1.03;70.98
6132;BME280;3097;42.692;23.278;2022-12-20T08:42:40;96688.66;;;1.39;71.51
6132;BME280;3097;42.692;23.278;2022-12-20T08:45:06;96679.91;;;1.64;71.56
6132;BME280;3097;42.692;23.278;2022-12-20T08:47:31;96687.44;;;2.07;70.11
6132;BME280;3097;42.692;23.278;2022-12-20T08:49:56;96685.66;;;2.49;71.29
6132;BME280;3097;42.692;23.278;2022-12-20T08:52:22;96685.91;;;2.66;67.55
6132;BME280;3097;42.692;23.278;2022-12-20T08:54:48;96682.91;;;2.92;68.67
6132;BME280;3097;42.692;23.278;2022-12-20T08:57:13;96687.44;;;3.28;67.32
6132;BME280;3097;42.692;23.278;2022-12-20T08:59:39;96682.78;;;3.72;65.81
6132;BME280;3097;42.692;23.278;2022-12-20T09:02:04;96663.84;;;4.03;64.77
6132;BME280;3097;42.692;23.278;2022-12-20T09:04:30;96679.91;;;4.33;63.03
6132;BME280;3097;42.692;23.278;2022-12-20T09:06:56;96673.53;;;4.56;61.92
6132;BME280;3097;42.692;23.278;2022-12-20T09:09:21;96665.22;;;4.44;61.61
6132;BME280;3097;42.692;23.278;2022-12-20T09:11:47;96648.13;;;4.54;62.80
6132;BME280;3097;42.692;23.278;2022-12-20T09:14:12;96641.56;;;4.79;62.41
6132;BME280;3097;42.692;23.278;2022-12-20T09:16:38;96659.78;;;4.94;61.21
6132;BME280;3097;42.692;23.278;2022-12-20T09:19:04;96648.47;;;4.96;59.68
6132;BME280;3097;42.692;23.278;2022-12-20T09:21:29;96653.75;;;5.13;60.28
6132;BME280;3097;42.692;23.278;2022-12-20T09:23:55;96650.88;;;5.25;59.72
6132;BME280;3097;42.692;23.278;2022-12-20T09:26:22;96644.44;;;5.39;59.39
6132;BME280;3097;42.692;23.278;2022-12-20T09:28:49;96647.34;;;5.09;56.90
6132;BME280;3097;42.692;23.278;2022-12-20T09:31:17;96635.94;;;5.03;58.47
6132;BME280;3097;42.692;23.278;2022-12-20T09:33:44;96633.69;;;4.90;59.05
6132;BME280;3097;42.692;23.278;2022-12-20T09:36:15;96641.31;;;5.00;59.73
6132;BME280;3097;42.692;23.278;2022-12-20T09:38:41;96635.09;;;4.85;58.49
6132;BME280;3097;42.692;23.278;2022-12-20T09:41:33;96634.00;;;4.87;60.34
6132;BME280;3097;42.692;23.278;2022-12-20T09:44:31;96614.59;;;4.94;58.08
6132;BME280;3097;42.692;23.278;2022-12-20T09:47:14;96609.09;;;4.89;59.79
6132;BME280;3097;42.692;23.278;2022-12-20T09:49:44;96613.13;;;4.92;58.11
6132;BME280;3097;42.692;23.278;2022-12-20T10:00:48;96593.81;;;4.52;58.17
6132;BME280;3097;42.692;23.278;2022-12-20T10:03:27;96599.16;;;4.32;57.89
6132;BME280;3097;42.692;23.278;2022-12-20T10:06:10;96589.97;;;3.92;58.65
6132;BME280;3097;42.692;23.278;2022-12-20T10:08:59;96577.84;;;3.67;59.42
6132;BME280;3097;42.692;23.278;2022-12-20T10:17:16;96570.06;;;3.20;61.30
6132;BME280;3097;42.692;23.278;2022-12-20T10:19:55;96550.22;;;3.33;61.59
6132;BME280;3097;42.692;23.278;2022-12-20T10:27:41;96530.47;;;3.55;60.79
6132;BME280;3097;42.692;23.278;2022-12-20T10:30:25;96516.56;;;3.30;60.41
6132;BME280;3097;42.692;23.278;2022-12-20T10:32:53;96515.50;;;3.13;61.10
6132;BME280;3097;42.692;23.278;2022-12-20T10:40:35;96511.59;;;3.19;61.57
6132;BME280;3097;42.692;23.278;2022-12-20T10:43:02;96504.50;;;3.22;61.38
6132;BME280;3097;42.692;23.278;2022-12-20T10:45:36;96470.94;;;3.27;62.09
6132;BME280;3097;42.692;23.278;2022-12-20T10:48:25;96491.41;;;3.54;62.54
6132;BME280;3097;42.692;23.278;2022-12-20T10:50:56;96484.69;;;3.63;61.86
6132;BME280;3097;42.692;23.278;2022-12-20T10:53:23;96493.25;;;3.71;61.70
6132;BME280;3097;42.692;23.278;2022-12-20T10:55:52;96478.06;;;3.79;60.98
6132;BME280;3097;42.692;23.278;2022-12-20T11:01:15;96475.28;;;4.00;59.98
6132;BME280;3097;42.692;23.278;2022-12-20T11:04:06;96477.84;;;4.00;60.13
6132;BME280;3097;42.692;23.278;2022-12-20T11:06:45;96451.47;;;3.82;59.32
6132;BME280;3097;42.692;23.278;2022-12-20T11:09:21;96463.91;;;3.95;58.46
6132;BME280;3097;42.692;23.278;2022-12-20T11:12:11;96467.97;;;3.87;59.00
6132;BME280;3097;42.692;23.278;2022-12-20T11:14:38;96459.25;;;3.90;58.32
6132;BME280;3097;42.692;23.278;2022-12-20T11:17:32;96459.88;;;3.92;59.03
6132;BME280;3097;42.692;23.278;2022-12-20T11:39:31;96430.09;;;4.38;58.75
6132;BME280;3097;42.692;23.278;2022-12-20T11:42:11;96405.66;;;4.17;58.48
6132;BME280;3097;42.692;23.278;2022-12-20T11:45:13;96418.44;;;4.35;57.34
6132;BME280;3097;42.692;23.278;2022-12-20T11:53:24;96416.75;;;3.99;57.85
6132;BME280;3097;42.692;23.278;2022-12-20T11:55:53;96411.50;;;4.00;57.47
6132;BME280;3097;42.692;23.278;2022-12-20T11:58:32;96408.91;;;4.10;57.96
6132;BME280;3097;42.692;23.278;2022-12-20T12:01:07;96415.19;;;4.15;58.24
6132;BME280;3097;42.692;23.278;2022-12-20T12:03:42;96405.06;;;4.23;58.03
6132;BME280;3097;42.692;23.278;2022-12-20T12:06:20;96402.16;;;4.36;58.63
6132;BME280;3097;42.692;23.278;2022-12-20T12:11:40;96392.91;;;4.53;58.38
6132;BME280;3097;42.692;23.278;2022-12-20T12:14:15;96389.19;;;4.65;58.01
6132;BME280;3097;42.692;23.278;2022-12-20T12:16:46;96377.38;;;4.64;58.04
6132;BME280;3097;42.692;23.278;2022-12-20T12:19:15;96382.38;;;4.74;57.97
6132;BME280;3097;42.692;23.278;2022-12-20T12:21:43;96389.66;;;4.86;57.32
6132;BME280;3097;42.692;23.278;2022-12-20T12:24:40;96386.22;;;4.95;57.98
6132;BME280;3097;42.692;23.278;2022-12-20T12:27:34;96383.75;;;5.03;56.20
6132;BME280;3097;42.692;23.278;2022-12-20T12:29:59;96384.31;;;4.97;56.50
6132;BME280;3097;42.692;23.278;2022-12-20T12:32:59;96384.81;;;5.01;56.72
6132;BME280;3097;42.692;23.278;2022-12-20T12:35:29;96377.81;;;5.03;57.31
6132;BME280;3097;42.692;23.278;2022-12-20T12:38:33;96387.72;;;5.06;56.77
6132;BME280;3097;42.692;23.278;2022-12-20T12:43:49;96367.53;;;4.95;55.37
6132;BME280;3097;42.692;23.278;2022-12-20T12:46:23;96377.31;;;4.99;55.88
6132;BME280;3097;42.692;23.278;2022-12-20T12:49:05;96373.81;;;5.00;56.33
6132;BME280;3097;42.692;23.278;2022-12-20T12:51:38;96377.81;;;5.03;56.61
6132;BME280;3097;42.692;23.278;2022-12-20T12:54:21;96372.72;;;5.03;56.52
6132;BME280;3097;42.692;23.278;2022-12-20T12:56:49;96369.41;;;5.11;56.10
6132;BME280;3097;42.692;23.278;2022-12-20T13:04:30;96361.06;;;5.09;57.21
6132;BME280;3097;42.692;23.278;2022-12-20T13:09:58;96344.19;;;5.16;54.69
6132;BME280;3097;42.692;23.278;2022-12-20T13:18:01;96341.13;;;5.12;54.57
6132;BME280;3097;42.692;23.278;2022-12-20T13:20:41;96345.78;;;5.17;53.51
6132;BME280;3097;42.692;23.278;2022-12-20T13:25:52;96341.34;;;5.19;54.41
6132;BME280;3097;42.692;23.278;2022-12-20T13:38:52;96333.09;;;5.07;54.24
6132;BME280;3097;42.692;23.278;2022-12-20T13:41:42;96337.56;;;5.05;54.16
6132;BME280;3097;42.692;23.278;2022-12-20T13:46:49;96246.06;;;4.49;54.74
6132;BME280;3097;42.692;23.278;2022-12-20T13:49:26;96334.56;;;5.10;54.88
6132;BME280;3097;42.692;23.278;2022-12-20T13:54:46;96333.91;;;5.07;55.18
6132;BME280;3097;42.692;23.278;2022-12-20T13:57:19;96325.34;;;5.17;55.31
6132;BME280;3097;42.692;23.278;2022-12-20T13:59:48;96327.50;;;5.03;54.69
6132;BME280;3097;42.692;23.278;2022-12-20T14:02:26;96327.19;;;5.06;54.97
6132;BME280;3097;42.692;23.278;2022-12-20T14:04:59;96314.94;;;5.10;54.84
6132;BME280;3097;42.692;23.278;2022-12-20T14:07:27;96322.41;;;5.03;54.61
6132;BME280;3097;42.692;23.278;2022-12-20T14:09:57;96302.66;;;4.88;54.79
6132;BME280;3097;42.692;23.278;2022-12-20T14:12:22;96306.66;;;4.90;55.16
6132;BME280;3097;42.692;23.278;2022-12-20T14:14:50;96306.31;;;4.85;55.48
6132;BME280;3097;42.692;23.278;2022-12-20T14:19:43;96307.31;;;4.92;55.36
6132;BME280;3097;42.692;23.278;2022-12-20T14:22:10;96299.94;;;4.89;55.41
6132;BME280;3097;42.692;23.278;2022-12-20T14:24:40;96303.66;;;4.95;55.14
6132;BME280;3097;42.692;23.278;2022-12-20T14:27:11;96300.09;;;4.88;55.52
6132;BME280;3097;42.692;23.278;2022-12-20T14:29:38;96310.66;;;4.93;55.86
6132;BME280;3097;42.692;23.278;2022-12-20T14:32:04;96301.69;;;4.89;56.60
6132;BME280;3097;42.692;23.278;2022-12-20T14:34:31;96295.44;;;4.83;56.66
6132;BME280;3097;42.692;23.278;2022-12-20T14:39:58;96296.19;;;4.76;56.55
6132;BME280;3097;42.692;23.278;2022-12-20T14:42:31;96295.25;;;4.59;57.07
6132;BME280;3097;42.692;23.278;2022-12-20T14:45:19;96293.44;;;4.69;57.11
6132;BME280;3097;42.692;23.278;2022-12-20T14:47:50;96295.63;;;4.64;57.24
6132;BME280;3097;42.692;23.278;2022-12-20T14:50:23;96298.94;;;4.56;57.11
6132;BME280;3097;42.692;23.278;2022-12-20T14:52:51;96294.13;;;4.53;57.35
6132;BME280;3097;42.692;23.278;2022-12-20T14:55:18;96291.81;;;4.42;58.45
6132;BME280;3097;42.692;23.278;2022-12-20T14:57:47;96288.53;;;4.32;57.43
6132;BME280;3097;42.692;23.278;2022-12-20T15:00:22;96282.41;;;4.25;56.26
6132;BME280;3097;42.692;23.278;2022-12-20T15:13:44;96270.91;;;4.03;55.94
6132;BME280;3097;42.692;23.278;2022-12-20T15:16:23;96273.94;;;4.07;55.97
6132;BME280;3097;42.692;23.278;2022-12-20T15:18:50;96285.34;;;4.12;55.64
6132;BME280;3097;42.692;23.278;2022-12-20T15:23:50;96271.19;;;4.00;56.06
6132;BME280;3097;42.692;23.278;2022-12-20T15:26:17;96264.19;;;4.02;55.84
6132;BME280;3097;42.692;23.278;2022-12-20T15:28:44;96294.03;;;4.19;55.89
6132;BME280;3097;42.692;23.278;2022-12-20T15:31:11;96285.63;;;4.09;56.61
6132;BME280;3097;42.692;23.278;2022-12-20T15:33:38;96286.72;;;4.07;56.72
6132;BME280;3097;42.692;23.278;2022-12-20T15:36:04;96284.25;;;3.97;56.91